createdAt,value
2017-10-20T00:01:02.112Z,27.13
2017-10-20T00:03:30.443Z,22.23
2017-10-20T00:05:58.113Z,18.27
2017-10-20T00:08:25.685Z,21.37
2017-10-20T00:10:53.271Z,24.97
2017-10-20T00:13:20.846Z,25.43
2017-10-20T00:15:48.427Z,23.10
2017-10-20T00:18:17.817Z,27.03
2017-10-20T00:20:45.372Z,30.77
2017-10-20T00:23:13.041Z,28.43
2017-10-20T00:25:40.619Z,37.70
2017-10-20T00:28:08.192Z,36.70
2017-10-20T00:30:35.726Z,28.40
2017-10-20T00:33:03.326Z,19.10
2017-10-20T00:35:31.656Z,24.10
2017-10-20T00:38:00.223Z,23.57
2017-10-20T00:40:27.828Z,25.37
2017-10-20T00:42:55.398Z,21.40
2017-10-20T00:45:22.983Z,16.87
2017-10-20T00:47:51.313Z,16.60
2017-10-20T00:50:18.908Z,15.93
2017-10-20T00:52:46.501Z,19.93
2017-10-20T00:55:14.846Z,18.03
2017-10-20T00:57:42.501Z,22.20
2017-10-20T01:00:10.122Z,19.93
2017-10-20T01:02:38.491Z,27.50
2017-10-20T01:05:06.877Z,28.17
2017-10-20T01:07:35.257Z,23.73
2017-10-20T01:10:03.622Z,34.50
2017-10-20T01:12:31.205Z,31.20
2017-10-20T01:14:58.764Z,32.43
2017-10-20T01:17:27.122Z,24.10
2017-10-20T01:19:54.751Z,26.00
2017-10-20T01:22:22.328Z,26.20
2017-10-20T01:24:49.913Z,25.73
2017-10-20T01:27:17.563Z,23.37
2017-10-20T01:29:45.190Z,19.30
2017-10-20T01:32:13.605Z,16.37
2017-10-20T01:34:41.326Z,21.93
2017-10-20T01:37:08.955Z,22.30
2017-10-20T01:39:36.557Z,16.60
2017-10-20T01:42:04.115Z,26.67
2017-10-20T01:44:31.747Z,22.80
2017-10-20T01:46:59.331Z,20.70
2017-10-20T01:49:26.922Z,19.63
2017-10-20T01:51:55.361Z,23.27
2017-10-20T01:54:22.942Z,25.90
2017-10-20T01:56:50.530Z,21.80
2017-10-20T01:59:18.110Z,18.87
2017-10-20T02:01:45.673Z,15.50
2017-10-20T02:04:14.008Z,14.70
2017-10-20T02:06:42.580Z,13.07
2017-10-20T02:09:10.136Z,17.30
2017-10-20T02:11:37.722Z,18.60
2017-10-20T02:14:05.290Z,19.33
2017-10-20T02:16:32.827Z,15.60
2017-10-20T02:19:00.385Z,18.83
2017-10-20T02:21:28.723Z,18.90
2017-10-20T02:23:56.344Z,19.00
2017-10-20T02:26:23.939Z,17.03
2017-10-20T02:28:51.500Z,17.20
2017-10-20T02:31:19.086Z,22.07
2017-10-20T02:33:46.668Z,18.12
2017-10-20T02:36:15.065Z,17.37
2017-10-20T02:38:42.714Z,13.50
2017-10-20T02:41:10.277Z,17.40
2017-10-20T02:43:37.845Z,15.57
2017-10-20T02:46:06.183Z,10.97
2017-10-20T02:48:33.805Z,13.80
2017-10-20T02:51:02.169Z,16.17
2017-10-20T02:53:30.576Z,13.30
2017-10-20T02:55:58.875Z,13.50
2017-10-20T02:58:27.416Z,12.13
2017-10-20T03:00:54.985Z,13.47
2017-10-20T03:03:22.588Z,12.40
2017-10-20T03:05:50.169Z,9.50
2017-10-20T03:08:17.743Z,11.60
2017-10-20T03:10:45.373Z,12.43
2017-10-20T03:13:13.739Z,14.30
2017-10-20T03:15:41.570Z,28.70
2017-10-20T03:18:09.162Z,56.30
2017-10-20T03:20:36.756Z,24.70
2017-10-20T03:23:04.541Z,20.73
2017-10-20T03:25:32.165Z,75.97
2017-10-20T03:27:59.728Z,53.80
2017-10-20T03:30:27.322Z,42.70
2017-10-20T03:32:55.652Z,42.07
2017-10-20T03:35:23.235Z,37.00
2017-10-20T03:37:50.795Z,33.80
2017-10-20T03:40:18.381Z,34.17
2017-10-20T03:42:45.941Z,31.73
2017-10-20T03:45:14.273Z,34.03
2017-10-20T03:47:41.853Z,33.53
2017-10-20T03:50:09.432Z,34.43
2017-10-20T03:52:37.740Z,36.17
2017-10-20T03:55:05.312Z,37.47
2017-10-20T03:57:32.902Z,33.20
2017-10-20T04:00:00.448Z,39.83
2017-10-20T04:02:28.060Z,38.97
2017-10-20T04:04:55.658Z,33.90
2017-10-20T04:07:23.273Z,33.60
2017-10-20T04:09:50.823Z,34.93
2017-10-20T04:12:19.141Z,33.20
2017-10-20T04:14:47.335Z,31.93
2017-10-20T04:17:14.898Z,31.40
2017-10-20T04:19:42.450Z,31.67
2017-10-20T04:22:10.035Z,26.30
2017-10-20T04:24:37.604Z,31.67
2017-10-20T04:27:05.179Z,29.17
2017-10-20T04:29:32.775Z,34.10
2017-10-20T04:32:01.104Z,34.00
2017-10-20T04:34:28.700Z,33.27
2017-10-20T04:36:56.247Z,31.13
2017-10-20T04:39:23.800Z,33.23
2017-10-20T04:41:51.354Z,30.33
2017-10-20T04:44:18.925Z,37.33
2017-10-20T04:46:46.547Z,28.37
2017-10-20T04:49:14.101Z,30.43
2017-10-20T04:51:43.135Z,42.03
2017-10-20T04:54:10.680Z,32.57
2017-10-20T04:56:38.234Z,26.97
2017-10-20T04:59:05.840Z,23.77
2017-10-20T05:01:33.395Z,24.03
2017-10-20T05:04:00.967Z,25.60
2017-10-20T05:06:28.542Z,22.70
2017-10-20T05:08:56.186Z,20.83
2017-10-20T05:11:23.859Z,31.33
2017-10-20T05:13:52.491Z,24.20
2017-10-20T05:16:20.097Z,25.80
2017-10-20T05:18:48.443Z,23.20
2017-10-20T05:21:17.718Z,19.60
2017-10-20T05:23:45.647Z,17.20
2017-10-20T05:26:13.439Z,17.90
2017-10-20T05:28:41.021Z,20.00
2017-10-20T05:31:08.591Z,18.50
2017-10-20T05:33:36.155Z,20.90
2017-10-20T05:36:05.217Z,20.87
2017-10-20T05:38:32.882Z,25.40
2017-10-20T05:41:00.536Z,25.53
2017-10-20T05:43:28.103Z,24.23
2017-10-20T05:45:55.872Z,28.33
2017-10-20T05:48:25.429Z,22.00
2017-10-20T05:50:53.975Z,24.23
2017-10-20T05:53:22.296Z,24.23
2017-10-20T05:55:50.187Z,22.77
2017-10-20T05:58:17.767Z,23.80
2017-10-20T06:00:45.358Z,26.67
2017-10-20T06:03:13.398Z,22.20
2017-10-20T06:05:40.980Z,26.20
2017-10-20T06:08:09.348Z,19.90
2017-10-20T06:10:37.183Z,28.70
2017-10-20T06:13:04.743Z,18.90
2017-10-20T06:15:33.574Z,22.67
2017-10-20T06:18:01.286Z,19.00
2017-10-20T06:20:28.878Z,20.83
2017-10-20T06:22:56.440Z,18.60
2017-10-20T06:25:24.045Z,14.70
2017-10-20T06:27:51.624Z,17.83
2017-10-20T06:30:19.987Z,20.80
2017-10-20T06:32:47.615Z,20.23
2017-10-20T06:35:15.231Z,18.87
2017-10-20T06:37:43.587Z,19.17
2017-10-20T06:40:11.133Z,19.27
2017-10-20T06:42:38.690Z,16.70
2017-10-20T06:45:06.292Z,17.57
2017-10-20T06:47:33.869Z,24.10
2017-10-20T06:50:01.431Z,23.03
2017-10-20T06:52:30.779Z,22.73
2017-10-20T06:54:58.346Z,16.47
2017-10-20T06:57:25.900Z,23.47
2017-10-20T06:59:53.721Z,14.10
2017-10-20T07:02:21.693Z,15.23
2017-10-20T07:04:49.873Z,17.90
2017-10-20T07:07:17.684Z,13.70
2017-10-20T07:09:46.956Z,16.03
2017-10-20T07:12:14.787Z,16.40
2017-10-20T07:14:42.349Z,37.30
2017-10-20T07:17:10.146Z,22.47
2017-10-20T07:19:43.307Z,16.97
2017-10-20T07:22:10.870Z,19.93
2017-10-20T07:24:38.464Z,16.10
2017-10-20T07:27:06.123Z,15.00
2017-10-20T07:29:33.739Z,26.27
2017-10-20T07:32:02.118Z,15.80
2017-10-20T07:34:30.461Z,16.10
2017-10-20T07:36:58.034Z,15.93
2017-10-20T07:39:25.593Z,22.10
2017-10-20T07:41:53.175Z,26.03
2017-10-20T07:44:20.738Z,14.70
2017-10-20T07:46:48.432Z,15.57
2017-10-20T07:49:16.789Z,12.97
2017-10-20T07:51:44.364Z,10.43
2017-10-20T07:54:12.728Z,11.63
2017-10-20T07:56:40.358Z,12.53
2017-10-20T07:59:07.943Z,11.53
2017-10-20T08:01:35.523Z,10.17
2017-10-20T08:04:03.144Z,10.20
2017-10-20T08:06:33.229Z,9.17
2017-10-20T08:09:01.535Z,11.43
2017-10-20T08:11:29.910Z,15.20
2017-10-20T08:13:58.636Z,9.03
2017-10-20T08:16:27.387Z,13.47
2017-10-20T08:18:57.072Z,10.83
2017-10-20T08:21:24.942Z,8.50
2017-10-20T08:23:52.837Z,8.83
2017-10-20T08:26:21.197Z,14.87
2017-10-20T08:28:48.746Z,9.13
2017-10-20T08:31:16.571Z,12.67
2017-10-20T08:33:44.937Z,12.80
2017-10-20T08:36:13.273Z,11.33
2017-10-20T08:38:40.867Z,8.10
2017-10-20T08:41:09.636Z,12.67
2017-10-20T08:43:37.188Z,9.53
2017-10-20T08:46:04.746Z,11.23
2017-10-20T08:48:33.487Z,10.97
2017-10-20T08:51:01.051Z,10.47
2017-10-20T08:53:28.629Z,8.50
2017-10-20T08:55:56.989Z,11.20
2017-10-20T08:58:24.576Z,11.37
2017-10-20T09:00:55.199Z,10.33
2017-10-20T09:03:22.759Z,13.07
2017-10-20T09:05:50.342Z,13.10
2017-10-20T09:08:18.723Z,12.97
2017-10-20T09:10:47.076Z,8.80
2017-10-20T09:13:14.745Z,9.17
2017-10-20T09:15:42.324Z,8.13
2017-10-20T09:18:09.911Z,15.07
2017-10-20T09:20:39.257Z,8.57
2017-10-20T09:23:07.027Z,7.43
2017-10-20T09:25:34.623Z,12.53
2017-10-20T09:28:02.231Z,9.83
2017-10-20T09:30:30.086Z,13.03
2017-10-20T09:32:57.628Z,16.77
2017-10-20T09:35:25.961Z,7.83
2017-10-20T09:37:53.541Z,14.23
2017-10-20T09:40:21.697Z,12.70
2017-10-20T09:42:49.257Z,11.83
2017-10-20T09:45:16.883Z,9.13
2017-10-20T09:47:44.599Z,9.00
2017-10-20T09:50:12.187Z,12.90
2017-10-20T09:52:39.980Z,8.53
2017-10-20T09:55:07.515Z,9.43
2017-10-20T09:57:35.322Z,8.60
2017-10-20T10:00:04.007Z,13.40
2017-10-20T10:02:31.690Z,9.33
2017-10-20T10:05:00.619Z,8.03
2017-10-20T10:07:28.208Z,11.23
2017-10-20T10:09:56.062Z,10.80
2017-10-20T10:12:23.657Z,10.90
2017-10-20T10:14:51.229Z,11.40
2017-10-20T10:17:18.945Z,8.90
2017-10-20T10:19:46.914Z,7.20
2017-10-20T10:22:15.330Z,7.33
2017-10-20T10:24:42.985Z,7.40
2017-10-20T10:27:10.569Z,13.03
2017-10-20T10:29:38.236Z,8.87
2017-10-20T10:32:05.957Z,10.10
2017-10-20T10:34:34.456Z,8.60
2017-10-20T10:37:02.235Z,12.40
2017-10-20T10:39:30.231Z,10.10
2017-10-20T10:41:57.798Z,8.80
2017-10-20T10:44:25.717Z,9.53
2017-10-20T10:46:53.478Z,7.90
2017-10-20T10:49:21.338Z,7.93
2017-10-20T10:51:49.301Z,7.90
2017-10-20T10:54:17.080Z,17.27
2017-10-20T10:56:44.959Z,10.13
2017-10-20T10:59:12.779Z,13.93
2017-10-20T11:01:40.598Z,9.50
2017-10-20T11:04:08.626Z,13.20
2017-10-20T11:06:48.228Z,8.10
2017-10-20T11:09:17.709Z,17.93
2017-10-20T11:11:57.572Z,14.27
2017-10-20T11:14:25.173Z,8.47
2017-10-20T11:16:52.753Z,9.67
2017-10-20T11:19:20.326Z,7.40
2017-10-20T11:21:47.955Z,10.37
2017-10-20T11:24:17.538Z,8.40
2017-10-20T11:26:45.311Z,8.13
2017-10-20T11:29:14.742Z,8.97
2017-10-20T11:31:43.065Z,9.50
2017-10-20T11:34:10.643Z,6.83
2017-10-20T11:36:38.216Z,7.87
2017-10-20T11:39:05.944Z,7.93
2017-10-20T11:41:33.560Z,8.13
2017-10-20T11:44:01.149Z,6.20
2017-10-20T11:46:29.508Z,7.77
2017-10-20T11:48:58.084Z,11.53
2017-10-20T11:51:25.622Z,6.70
2017-10-20T11:53:53.196Z,6.87
2017-10-20T11:56:20.776Z,17.80
2017-10-20T11:58:48.334Z,7.27
2017-10-20T12:01:15.926Z,17.87
2017-10-20T12:03:43.467Z,8.67
2017-10-20T12:06:11.036Z,7.33
2017-10-20T12:08:38.611Z,7.00
2017-10-20T12:11:06.173Z,6.87
2017-10-20T12:13:33.775Z,6.60
2017-10-20T12:16:01.438Z,8.20
2017-10-20T12:18:29.833Z,7.00
2017-10-20T12:20:57.396Z,7.20
2017-10-20T12:23:24.946Z,12.10
2017-10-20T12:25:53.399Z,8.50
2017-10-20T12:28:20.998Z,7.63
2017-10-20T12:30:49.364Z,7.47
2017-10-20T12:33:16.942Z,8.83
2017-10-20T12:35:45.470Z,8.20
2017-10-20T12:38:13.795Z,6.20
2017-10-20T12:40:41.370Z,6.40
2017-10-20T12:43:09.868Z,5.90
2017-10-20T12:45:39.476Z,6.13
2017-10-20T12:48:07.816Z,11.00
2017-10-20T12:50:35.419Z,8.40
2017-10-20T12:53:04.557Z,7.33
2017-10-20T12:55:32.161Z,7.10
2017-10-20T12:58:00.160Z,7.60
2017-10-20T13:00:29.622Z,6.97
2017-10-20T13:02:58.030Z,6.57
2017-10-20T13:05:25.595Z,8.27
2017-10-20T13:07:53.169Z,6.23
2017-10-20T13:10:21.591Z,6.97
2017-10-20T13:12:49.440Z,7.67
2017-10-20T13:15:18.852Z,7.13
2017-10-20T13:17:46.634Z,6.67
2017-10-20T13:20:14.950Z,6.63
2017-10-20T13:22:42.534Z,7.50
2017-10-20T13:25:10.136Z,7.57
2017-10-20T13:27:37.805Z,9.93
2017-10-20T13:30:06.142Z,6.00
2017-10-20T13:32:33.710Z,8.80
2017-10-20T13:35:01.276Z,9.90
2017-10-20T13:37:28.854Z,6.57
2017-10-20T13:39:56.568Z,5.87
2017-10-20T13:42:25.302Z,7.10
2017-10-20T13:44:52.849Z,11.50
2017-10-20T13:47:20.436Z,8.07
2017-10-20T13:49:48.066Z,7.57
2017-10-20T13:52:15.626Z,6.57
2017-10-20T13:54:43.292Z,7.03
2017-10-20T13:57:10.929Z,6.40
2017-10-20T13:59:38.515Z,7.87
2017-10-20T14:02:06.948Z,6.37
2017-10-20T14:04:34.494Z,6.60
2017-10-20T14:07:02.156Z,6.73
2017-10-20T14:09:30.004Z,8.17
2017-10-20T14:11:57.598Z,7.37
2017-10-20T14:14:26.409Z,5.90
2017-10-20T14:16:53.996Z,8.37
2017-10-20T14:19:22.323Z,6.67
2017-10-20T14:21:50.172Z,7.40
2017-10-20T14:24:17.742Z,7.93
2017-10-20T14:26:45.298Z,8.53
2017-10-20T14:29:12.907Z,8.77
2017-10-20T14:31:40.504Z,7.30
2017-10-20T14:34:08.854Z,9.60
2017-10-20T14:36:36.405Z,9.30
2017-10-20T14:39:04.428Z,6.07
2017-10-20T14:41:32.756Z,10.60
2017-10-20T14:44:00.478Z,8.33
2017-10-20T14:46:28.042Z,8.40
2017-10-20T14:48:56.548Z,10.37
2017-10-20T14:51:24.438Z,6.93
2017-10-20T14:53:52.079Z,8.73
2017-10-20T14:56:20.436Z,13.23
2017-10-20T14:58:47.994Z,10.87
2017-10-20T15:01:15.613Z,7.23
2017-10-20T15:03:43.681Z,8.10
2017-10-20T15:06:11.636Z,6.90
2017-10-20T15:08:39.650Z,8.33
2017-10-20T15:11:08.577Z,7.13
2017-10-20T15:13:36.146Z,9.07
2017-10-20T15:16:03.718Z,7.40
2017-10-20T15:18:31.398Z,10.00
2017-10-20T15:20:59.751Z,8.57
2017-10-20T15:23:27.333Z,9.80
2017-10-20T15:25:54.871Z,8.00
2017-10-20T15:28:22.441Z,7.57
2017-10-20T15:30:50.000Z,6.77
2017-10-20T15:33:17.634Z,8.80
2017-10-20T15:35:45.200Z,7.57
2017-10-20T15:38:12.745Z,8.83
2017-10-20T15:40:41.145Z,7.03
2017-10-20T15:43:08.749Z,7.03
2017-10-20T15:45:36.427Z,7.33
2017-10-20T15:48:04.249Z,6.80
2017-10-20T15:50:31.850Z,15.20
2017-10-20T15:52:59.431Z,8.80
2017-10-20T15:55:27.062Z,7.40
2017-10-20T15:57:55.691Z,8.30
2017-10-20T16:00:23.278Z,9.27
2017-10-20T16:02:51.711Z,8.87
2017-10-20T16:05:19.332Z,13.20
2017-10-20T16:07:47.868Z,10.10
2017-10-20T16:10:15.449Z,8.97
2017-10-20T16:12:43.150Z,10.47
2017-10-20T16:15:11.533Z,9.40
2017-10-20T16:17:40.361Z,7.47
2017-10-20T16:20:08.104Z,7.37
2017-10-20T16:22:36.489Z,12.83
2017-10-20T16:25:04.137Z,7.53
2017-10-20T16:27:32.710Z,8.63
2017-10-20T16:30:00.445Z,9.63
2017-10-20T16:32:28.188Z,12.10
2017-10-20T16:34:56.111Z,13.90
2017-10-20T16:37:24.533Z,8.17
2017-10-20T16:39:53.023Z,11.83
2017-10-20T16:42:20.667Z,10.43
2017-10-20T16:44:49.258Z,10.63
2017-10-20T16:47:16.918Z,8.63
2017-10-20T16:49:45.349Z,12.47
2017-10-20T16:52:13.234Z,9.47
2017-10-20T16:54:41.127Z,10.60
2017-10-20T16:57:09.879Z,13.00
2017-10-20T16:59:37.563Z,9.67
2017-10-20T17:02:05.301Z,10.43
2017-10-20T17:04:33.735Z,10.63
2017-10-20T17:07:01.366Z,11.50
2017-10-20T17:09:29.220Z,10.17
2017-10-20T17:11:56.944Z,9.73
2017-10-20T17:14:24.510Z,13.03
2017-10-20T17:16:52.136Z,16.30
2017-10-20T17:19:19.913Z,10.03
2017-10-20T17:21:47.625Z,11.20
2017-10-20T17:24:15.370Z,11.73
2017-10-20T17:26:43.016Z,12.60
2017-10-20T17:29:10.720Z,10.17
2017-10-20T17:31:38.581Z,11.70
2017-10-20T17:34:06.229Z,13.37
2017-10-20T17:36:33.994Z,13.00
2017-10-20T17:39:01.666Z,21.73
2017-10-20T17:41:29.311Z,11.93
2017-10-20T17:43:56.948Z,13.20
2017-10-20T17:46:24.632Z,12.90
2017-10-20T17:48:53.495Z,11.77
2017-10-20T17:51:21.403Z,16.13
2017-10-20T17:53:49.372Z,19.90
2017-10-20T17:56:17.166Z,12.97
2017-10-20T17:58:44.737Z,11.07
2017-10-20T18:01:12.321Z,13.33
2017-10-20T18:03:42.076Z,17.00
2017-10-20T18:06:09.718Z,16.03
2017-10-20T18:08:37.923Z,10.77
2017-10-20T18:11:05.893Z,14.30
2017-10-20T18:13:33.902Z,10.50
2017-10-20T18:16:03.751Z,9.47
2017-10-20T18:18:31.779Z,11.70
2017-10-20T18:20:59.368Z,13.63
2017-10-20T18:23:27.086Z,11.67
2017-10-20T18:25:54.679Z,12.13
2017-10-20T18:28:22.301Z,13.50
2017-10-20T18:30:49.926Z,11.27
2017-10-20T18:33:19.168Z,11.27
2017-10-20T18:35:46.809Z,13.20
2017-10-20T18:38:14.356Z,12.50
2017-10-20T18:40:43.070Z,22.43
2017-10-20T18:43:10.634Z,9.57
2017-10-20T18:45:38.242Z,11.77
2017-10-20T18:48:05.860Z,10.37
2017-10-20T18:50:33.447Z,14.03
2017-10-20T18:53:01.042Z,8.73
2017-10-20T18:55:29.386Z,10.10
2017-10-20T18:57:57.043Z,14.50
2017-10-20T19:00:24.637Z,15.53
2017-10-20T19:02:52.445Z,11.27
2017-10-20T19:05:20.792Z,14.90
2017-10-20T19:07:49.410Z,13.07
2017-10-20T19:10:18.253Z,10.67
2017-10-20T19:12:47.272Z,12.07
2017-10-20T19:15:14.893Z,11.03
2017-10-20T19:17:42.473Z,13.60
2017-10-20T19:20:10.118Z,14.33
2017-10-20T19:22:37.835Z,8.73
2017-10-20T19:25:05.883Z,12.27
2017-10-20T19:27:34.693Z,8.17
2017-10-20T19:30:03.199Z,9.73
2017-10-20T19:32:30.855Z,11.07
2017-10-20T19:34:58.647Z,10.20
2017-10-20T19:37:26.207Z,8.90
2017-10-20T19:39:54.084Z,9.83
2017-10-20T19:42:21.704Z,12.20
2017-10-20T19:44:49.261Z,8.90
2017-10-20T19:47:16.823Z,15.13
2017-10-20T19:49:44.400Z,10.30
2017-10-20T19:52:11.965Z,14.00
2017-10-20T19:54:39.511Z,11.00
2017-10-20T19:57:07.097Z,9.10
2017-10-20T19:59:34.673Z,9.73
2017-10-20T20:02:02.246Z,13.77
2017-10-20T20:04:29.784Z,10.73
2017-10-20T20:06:57.516Z,9.07
2017-10-20T20:09:25.091Z,11.00
2017-10-20T20:11:52.696Z,11.67
2017-10-20T20:14:20.223Z,9.80
2017-10-20T20:16:47.780Z,11.17
2017-10-20T20:19:15.374Z,10.37
2017-10-20T20:21:42.912Z,9.10
2017-10-20T20:24:10.508Z,14.33
2017-10-20T20:26:38.088Z,12.43
2017-10-20T20:29:05.648Z,10.87
2017-10-20T20:31:34.790Z,12.13
2017-10-20T20:34:05.068Z,10.80
2017-10-20T20:36:32.648Z,11.63
2017-10-20T20:39:00.240Z,10.43
2017-10-20T20:41:29.848Z,9.60
2017-10-20T20:43:57.716Z,11.37
2017-10-20T20:46:25.594Z,13.20
2017-10-20T20:48:53.271Z,12.90
2017-10-20T20:51:21.810Z,14.13
2017-10-20T20:53:49.913Z,14.30
2017-10-20T20:56:17.962Z,12.10
2017-10-20T20:58:45.533Z,11.23
2017-10-20T21:01:13.327Z,12.37
2017-10-20T21:03:41.679Z,11.00
2017-10-20T21:06:09.254Z,14.87
2017-10-20T21:08:37.055Z,12.53
2017-10-20T21:11:05.395Z,12.20
2017-10-20T21:13:32.975Z,12.63
2017-10-20T21:16:00.521Z,15.50
2017-10-20T21:18:28.119Z,11.77
2017-10-20T21:20:56.440Z,11.60
2017-10-20T21:23:24.011Z,12.83
2017-10-20T21:25:51.864Z,11.40
2017-10-20T21:28:20.388Z,11.43
2017-10-20T21:30:48.006Z,18.93
2017-10-20T21:33:16.324Z,12.40
2017-10-20T21:35:43.903Z,16.63
2017-10-20T21:38:11.460Z,14.00
2017-10-20T21:40:39.024Z,11.23
2017-10-20T21:43:07.746Z,13.03
2017-10-20T21:45:36.591Z,12.80
2017-10-20T21:48:04.138Z,13.97
2017-10-20T21:50:32.869Z,17.33
2017-10-20T21:53:03.090Z,11.63
2017-10-20T21:55:30.632Z,12.10
2017-10-20T21:57:58.190Z,12.17
2017-10-20T22:00:26.537Z,16.77
2017-10-20T22:02:54.093Z,15.57
2017-10-20T22:05:21.687Z,14.50
2017-10-20T22:07:50.406Z,15.70
2017-10-20T22:10:17.965Z,14.03
2017-10-20T22:12:45.525Z,15.03
2017-10-20T22:15:13.854Z,13.23
2017-10-20T22:17:41.501Z,14.83
2017-10-20T22:20:09.115Z,14.17
2017-10-20T22:22:36.916Z,12.73
2017-10-20T22:25:04.485Z,19.13
2017-10-20T22:27:32.198Z,12.87
2017-10-20T22:30:00.586Z,14.63
2017-10-20T22:32:28.126Z,12.70
2017-10-20T22:34:55.715Z,14.90
2017-10-20T22:37:23.247Z,11.67
2017-10-20T22:39:50.800Z,12.77
2017-10-20T22:42:18.364Z,12.67
2017-10-20T22:44:45.894Z,14.70
2017-10-20T22:47:14.256Z,14.10
2017-10-20T22:49:45.221Z,12.63
2017-10-20T22:52:13.184Z,12.93
2017-10-20T22:54:41.892Z,16.10
2017-10-20T22:57:10.477Z,11.67
2017-10-20T22:59:38.875Z,12.90
2017-10-20T23:02:08.023Z,16.03
2017-10-20T23:04:35.597Z,12.53
2017-10-20T23:07:03.152Z,13.13
2017-10-20T23:09:30.725Z,11.70
2017-10-20T23:11:58.312Z,16.73
2017-10-20T23:14:26.634Z,12.40
2017-10-20T23:16:54.207Z,13.30
2017-10-20T23:19:21.778Z,15.37
2017-10-20T23:21:49.319Z,14.17
2017-10-20T23:24:16.877Z,13.97
2017-10-20T23:26:44.460Z,12.27
2017-10-20T23:29:12.035Z,19.63
2017-10-20T23:31:40.359Z,12.57
2017-10-20T23:34:07.936Z,11.83
2017-10-20T23:36:35.534Z,15.07
2017-10-20T23:39:03.095Z,15.60
2017-10-20T23:41:30.657Z,14.40
2017-10-20T23:43:58.193Z,12.03
2017-10-20T23:46:25.754Z,15.63
2017-10-20T23:48:54.328Z,13.10
2017-10-20T23:51:22.451Z,13.03
2017-10-20T23:53:50.349Z,14.47
2017-10-20T23:56:17.897Z,14.13
2017-10-20T23:58:45.479Z,12.10
